Time;durP1;ratioP1;P1;durP2;ratioP2;P2;SDS_P1;SDS_P2;PMS_P1;PMS_P2;Temp;Humidity;BMP_temperature;BMP_pressure;BME280_temperature;BME280_humidity;BME280_pressure;Samples;Min_cycle;Max_cycle;Signal;HPM_P1;HPM_P2
2021/01/07 00:00:20;;;;;;;22.20;16.43;;;2.60;99.90;;;;;;4997350;28;20237;-77
2021/01/07 00:02:45;;;;;;;24.33;16.17;;;2.50;99.90;;;;;;5012216;28;20221;-77
2021/01/07 00:05:11;;;;;;;28.23;18.17;;;2.50;99.90;;;;;;5000929;28;20170;-76
2021/01/07 00:07:37;;;;;;;26.00;17.10;;;2.50;99.90;;;;;;4998614;28;20244;-77
2021/01/07 00:10:04;;;;;;;25.70;15.27;;;2.50;99.90;;;;;;5005965;28;20625;-77
2021/01/07 00:12:30;;;;;;;26.42;16.90;;;2.50;99.90;;;;;;4983649;28;20766;-77
2021/01/07 00:14:56;;;;;;;25.17;15.60;;;2.50;99.90;;;;;;5011557;28;20209;-78
2021/01/07 00:17:22;;;;;;;25.53;16.07;;;2.50;99.90;;;;;;4994029;28;21007;-77
2021/01/07 00:19:47;;;;;;;28.63;16.23;;;2.50;99.90;;;;;;5003713;28;20479;-77
2021/01/07 00:22:13;;;;;;;22.73;15.60;;;2.50;99.90;;;;;;5015288;28;20229;-77
2021/01/07 00:24:39;;;;;;;28.10;15.60;;;2.50;99.90;;;;;;4999325;28;20173;-77
2021/01/07 00:27:05;;;;;;;29.90;16.70;;;2.50;99.90;;;;;;5011152;28;20206;-77
2021/01/07 00:29:30;;;;;;;26.87;16.83;;;2.50;99.90;;;;;;5009305;28;20163;-78
2021/01/07 00:31:56;;;;;;;27.67;16.07;;;2.50;99.90;;;;;;5002230;28;20468;-77
2021/01/07 00:34:22;;;;;;;28.23;15.47;;;2.50;99.90;;;;;;5016222;28;20439;-77
2021/01/07 00:36:55;;;;;;;26.10;16.90;;;2.40;99.90;;;;;;4998298;28;20226;-77
2021/01/07 00:39:21;;;;;;;32.28;17.98;;;2.40;99.90;;;;;;4980559;28;20174;-78
2021/01/07 00:41:51;;;;;;;26.60;16.90;;;2.40;99.90;;;;;;5011278;28;20217;-78
2021/01/07 00:44:16;;;;;;;23.13;15.68;;;2.40;99.90;;;;;;4999035;28;20557;-77
2021/01/07 00:46:42;;;;;;;28.17;18.10;;;2.50;99.90;;;;;;5007769;28;20213;-76
2021/01/07 00:49:08;;;;;;;28.37;17.60;;;2.50;99.90;;;;;;4994838;28;20175;-77
2021/01/07 00:51:33;;;;;;;27.77;17.37;;;2.50;99.90;;;;;;4997682;28;20213;-77
2021/01/07 00:53:59;;;;;;;24.97;17.50;;;2.50;99.90;;;;;;5001296;28;20273;-77
2021/01/07 00:56:25;;;;;;;25.27;15.57;;;2.50;99.90;;;;;;5008080;28;20222;-76
2021/01/07 00:58:50;;;;;;;24.43;18.77;;;2.50;99.90;;;;;;5018125;28;20229;-76
2021/01/07 01:01:16;;;;;;;24.77;15.47;;;2.50;99.90;;;;;;4991648;28;20214;-77
2021/01/07 01:03:42;;;;;;;25.07;17.70;;;2.40;99.90;;;;;;5003504;28;20190;-76
2021/01/07 01:06:08;;;;;;;26.77;17.03;;;2.40;99.90;;;;;;5011075;28;20627;-76
2021/01/07 01:08:33;;;;;;;26.80;17.25;;;2.40;99.90;;;;;;5000603;28;20193;-77
2021/01/07 01:10:59;;;;;;;25.83;15.80;;;2.40;99.90;;;;;;5000670;28;20217;-77
2021/01/07 01:13:25;;;;;;;27.63;17.90;;;2.40;99.90;;;;;;4997739;28;20198;-77
2021/01/07 01:15:50;;;;;;;23.03;16.90;;;2.40;99.90;;;;;;4994568;28;20437;-77
2021/01/07 01:18:16;;;;;;;24.60;17.13;;;2.40;99.90;;;;;;5006582;28;20646;-77
2021/01/07 01:20:42;;;;;;;28.53;17.57;;;2.50;99.90;;;;;;4992562;28;20265;-77
2021/01/07 01:23:08;;;;;;;28.70;18.17;;;2.40;99.90;;;;;;4997211;28;20240;-76
2021/01/07 01:25:33;;;;;;;27.53;16.40;;;2.40;99.90;;;;;;5012731;28;20656;-77
2021/01/07 01:27:59;;;;;;;27.30;15.37;;;2.40;99.90;;;;;;4994401;28;20222;-77
2021/01/07 01:30:25;;;;;;;27.10;17.20;;;2.40;99.90;;;;;;5006096;28;20174;-76
2021/01/07 01:32:51;;;;;;;24.07;16.17;;;2.50;99.90;;;;;;5010953;28;20221;-77
2021/01/07 01:35:17;;;;;;;26.88;17.52;;;2.50;99.90;;;;;;4992235;28;20182;-77
2021/01/07 01:37:46;;;;;;;26.27;16.80;;;2.50;99.90;;;;;;5010298;28;20339;-77
2021/01/07 01:40:13;;;;;;;25.23;16.23;;;2.40;99.90;;;;;;4993593;28;20193;-77
2021/01/07 01:42:39;;;;;;;27.23;17.50;;;2.40;99.90;;;;;;4990380;28;20240;-78
2021/01/07 01:45:06;;;;;;;25.38;15.02;;;2.40;99.90;;;;;;4991625;28;20171;-77
2021/01/07 01:47:32;;;;;;;25.17;15.60;;;2.40;99.90;;;;;;4982652;28;20279;-77
2021/01/07 01:49:57;;;;;;;31.63;16.60;;;2.40;99.90;;;;;;4992397;28;20412;-77
2021/01/07 01:52:24;;;;;;;26.63;15.17;;;2.50;99.90;;;;;;5009780;28;20264;-77
2021/01/07 01:54:50;;;;;;;24.15;15.90;;;2.40;99.90;;;;;;5004160;28;20418;-76
2021/01/07 01:57:17;;;;;;;27.58;15.27;;;2.50;99.90;;;;;;4996856;28;20695;-76
2021/01/07 01:59:43;;;;;;;22.75;16.20;;;2.40;99.90;;;;;;5005825;28;20190;-76
2021/01/07 02:02:15;;;;;;;27.70;15.48;;;2.40;99.90;;;;;;5004905;28;20271;-76
2021/01/07 02:04:40;;;;;;;27.33;16.92;;;2.30;99.90;;;;;;4994920;28;20194;-78
2021/01/07 02:07:13;;;;;;;26.90;16.73;;;2.40;99.90;;;;;;5008176;28;20202;-76
2021/01/07 02:09:43;;;;;;;27.30;16.95;;;2.40;99.90;;;;;;5000642;28;20190;-76
2021/01/07 02:12:10;;;;;;;24.25;16.83;;;2.40;99.90;;;;;;5012055;28;20300;-76
2021/01/07 02:14:40;;;;;;;24.02;15.57;;;2.30;99.90;;;;;;5004904;28;20236;-76
2021/01/07 02:17:06;;;;;;;24.67;16.13;;;2.40;99.90;;;;;;5009274;28;20645;-76
2021/01/07 02:19:31;;;;;;;25.73;15.83;;;2.30;99.90;;;;;;4994263;28;20226;-76
2021/01/07 02:21:57;;;;;;;27.93;15.83;;;2.30;99.90;;;;;;4994836;28;20591;-76
2021/01/07 02:24:25;;;;;;;26.17;16.90;;;2.30;99.90;;;;;;5007316;28;20194;-77
2021/01/07 02:26:52;;;;;;;27.75;15.02;;;2.30;99.90;;;;;;4994372;28;20444;-76
2021/01/07 02:29:18;;;;;;;24.95;14.90;;;2.30;99.90;;;;;;5013084;28;20190;-76
2021/01/07 02:31:43;;;;;;;21.53;15.50;;;2.40;99.90;;;;;;4996415;28;20216;-76
2021/01/07 02:34:09;;;;;;;25.23;15.60;;;2.40;99.90;;;;;;5011437;28;20567;-77
2021/01/07 02:36:34;;;;;;;23.77;15.77;;;2.40;99.90;;;;;;5010062;28;20653;-77
2021/01/07 02:39:00;;;;;;;24.70;15.90;;;2.40;99.90;;;;;;5010914;28;20190;-77
2021/01/07 02:41:26;;;;;;;25.90;15.20;;;2.40;99.90;;;;;;4996170;28;20214;-76
2021/01/07 02:43:52;;;;;;;25.00;15.00;;;2.40;99.90;;;;;;5009694;28;20585;-76
2021/01/07 02:46:17;;;;;;;25.83;14.47;;;2.40;99.90;;;;;;5007183;28;20202;-76
2021/01/07 02:48:43;;;;;;;30.40;16.13;;;2.40;99.90;;;;;;4992415;28;20599;-77
2021/01/07 02:51:08;;;;;;;26.53;14.30;;;2.40;99.90;;;;;;4992426;28;20197;-77
2021/01/07 02:53:34;;;;;;;29.90;16.20;;;2.40;99.90;;;;;;5009570;28;20200;-76
2021/01/07 02:56:00;;;;;;;26.63;14.77;;;2.40;99.90;;;;;;4997479;28;20171;-77
2021/01/07 02:58:25;;;;;;;25.90;15.30;;;2.40;99.90;;;;;;5001623;28;20253;-77
2021/01/07 03:00:51;;;;;;;24.57;15.43;;;2.40;99.90;;;;;;5016541;28;20217;-77
2021/01/07 03:03:17;;;;;;;30.57;17.33;;;2.40;99.90;;;;;;5000860;28;20206;-77
2021/01/07 03:05:42;;;;;;;30.47;17.40;;;2.30;99.90;;;;;;5010006;28;20531;-77
2021/01/07 03:08:08;;;;;;;28.07;16.07;;;2.40;99.90;;;;;;5006241;28;20198;-76
2021/01/07 03:10:34;;;;;;;25.40;16.17;;;2.30;99.90;;;;;;4996422;28;20638;-76
2021/01/07 03:12:59;;;;;;;26.70;15.53;;;2.30;99.90;;;;;;5013515;28;20725;-76
2021/01/07 03:15:25;;;;;;;25.73;16.13;;;2.30;99.90;;;;;;5008094;28;20674;-77
2021/01/07 03:17:50;;;;;;;23.80;14.80;;;2.30;99.90;;;;;;4994807;28;20613;-78
2021/01/07 03:20:16;;;;;;;30.43;16.10;;;2.30;99.90;;;;;;5013523;28;20602;-78
2021/01/07 03:22:43;;;;;;;24.73;16.83;;;2.30;99.90;;;;;;5012167;28;20209;-76
2021/01/07 03:25:10;;;;;;;25.45;16.00;;;2.30;99.90;;;;;;5014945;28;20197;-77
2021/01/07 03:27:37;;;;;;;33.65;16.73;;;2.30;99.90;;;;;;4997525;28;20221;-76
2021/01/07 03:30:07;;;;;;;27.40;17.83;;;2.30;99.90;;;;;;4997280;28;20187;-76
2021/01/07 03:32:34;;;;;;;28.38;16.83;;;2.30;99.90;;;;;;5013466;28;20237;-76
2021/01/07 03:35:00;;;;;;;29.27;17.17;;;2.30;99.90;;;;;;4986321;28;20687;-76
2021/01/07 03:37:26;;;;;;;28.63;19.13;;;2.30;99.90;;;;;;5007028;28;20220;-76
2021/01/07 03:39:51;;;;;;;26.40;16.63;;;2.30;99.90;;;;;;4996448;28;20202;-76
2021/01/07 03:42:17;;;;;;;29.83;19.20;;;2.30;99.90;;;;;;4999056;28;20676;-77
2021/01/07 03:44:43;;;;;;;28.80;17.77;;;2.30;99.90;;;;;;5015008;28;20208;-76
2021/01/07 03:47:08;;;;;;;32.90;19.33;;;2.30;99.90;;;;;;4994690;28;20234;-76
2021/01/07 03:49:34;;;;;;;33.10;18.83;;;2.30;99.90;;;;;;5002050;28;20621;-76
2021/01/07 03:51:59;;;;;;;33.07;19.00;;;2.40;99.90;;;;;;5009973;28;20233;-77
2021/01/07 03:54:25;;;;;;;32.93;19.60;;;2.30;99.90;;;;;;4994882;28;20245;-76
2021/01/07 03:56:51;;;;;;;28.93;17.80;;;2.30;99.90;;;;;;5003721;28;20213;-76
2021/01/07 03:59:17;;;;;;;31.57;18.60;;;2.30;99.90;;;;;;5001967;28;20418;-76
2021/01/07 04:01:43;;;;;;;31.27;18.97;;;2.20;99.90;;;;;;5010627;28;20700;-76
2021/01/07 04:04:08;;;;;;;27.13;17.70;;;2.20;99.90;;;;;;5000570;28;20245;-76
2021/01/07 04:06:35;;;;;;;31.20;18.60;;;2.30;99.90;;;;;;5020233;28;20209;-76
2021/01/07 04:09:01;;;;;;;32.55;18.27;;;2.20;99.90;;;;;;5003744;28;20210;-76
2021/01/07 04:11:26;;;;;;;37.33;19.97;;;2.30;99.90;;;;;;5008360;28;20704;-76
2021/01/07 04:13:52;;;;;;;28.60;17.47;;;2.20;99.90;;;;;;4996496;28;20321;-77
2021/01/07 04:16:18;;;;;;;30.60;19.70;;;2.30;99.90;;;;;;5006535;28;20229;-77
2021/01/07 04:18:43;;;;;;;28.10;18.57;;;2.30;99.90;;;;;;5012476;28;20206;-76
2021/01/07 04:21:09;;;;;;;33.20;20.87;;;2.30;99.90;;;;;;4994571;28;20613;-76
2021/01/07 04:23:35;;;;;;;33.23;19.83;;;2.40;99.90;;;;;;5001311;28;20619;-76
2021/01/07 04:26:02;;;;;;;33.93;21.63;;;2.40;99.90;;;;;;5012869;28;20197;-77
2021/01/07 04:28:28;;;;;;;38.30;20.17;;;2.40;99.90;;;;;;5013932;28;20202;-76
2021/01/07 04:30:53;;;;;;;33.17;20.13;;;2.40;99.90;;;;;;4994096;28;20194;-76
2021/01/07 04:33:19;;;;;;;38.50;21.70;;;2.40;99.90;;;;;;4995162;28;20205;-76
2021/01/07 04:35:45;;;;;;;32.90;21.47;;;2.40;99.90;;;;;;5001902;28;20206;-77
2021/01/07 04:38:11;;;;;;;31.43;20.23;;;2.30;99.90;;;;;;5002307;28;20210;-76
2021/01/07 04:40:36;;;;;;;32.60;20.23;;;2.40;99.90;;;;;;5009653;28;20754;-76
2021/01/07 04:43:02;;;;;;;42.40;23.57;;;2.40;99.90;;;;;;4996554;28;20564;-76
2021/01/07 04:45:29;;;;;;;35.83;21.70;;;2.40;99.90;;;;;;5014724;28;20198;-76
2021/01/07 04:47:55;;;;;;;34.17;20.55;;;2.40;99.90;;;;;;4986432;28;20461;-76
2021/01/07 04:50:21;;;;;;;38.95;21.85;;;2.40;99.90;;;;;;5008037;28;20781;-76
2021/01/07 04:52:46;;;;;;;32.60;20.43;;;2.50;99.90;;;;;;5013271;28;20217;-76
2021/01/07 04:55:13;;;;;;;38.43;23.07;;;2.50;99.90;;;;;;5001851;28;20546;-77
2021/01/07 04:57:39;;;;;;;38.25;24.15;;;2.50;99.90;;;;;;4994050;28;20222;-77
2021/01/07 05:00:08;;;;;;;35.88;21.02;;;2.40;99.90;;;;;;4994409;28;20705;-77
2021/01/07 05:02:34;;;;;;;36.10;20.95;;;2.40;99.90;;;;;;5000200;28;20221;-77
2021/01/07 05:05:02;;;;;;;38.72;21.58;;;2.40;99.90;;;;;;5011919;28;20232;-77
2021/01/07 05:07:28;;;;;;;38.13;22.83;;;2.40;99.90;;;;;;4998996;28;20755;-76
2021/01/07 05:10:02;;;;;;;34.03;21.83;;;2.40;99.90;;;;;;4996330;28;20182;-76
2021/01/07 05:12:28;;;;;;;38.50;22.83;;;2.50;99.90;;;;;;5005605;28;20214;-76
2021/01/07 05:14:53;;;;;;;36.40;21.80;;;2.40;99.90;;;;;;4983078;28;20182;-76
2021/01/07 05:17:19;;;;;;;34.70;21.80;;;2.40;99.90;;;;;;5006411;28;20547;-77
2021/01/07 05:19:45;;;;;;;33.47;20.87;;;2.40;99.90;;;;;;4995338;28;20625;-76
2021/01/07 05:22:10;;;;;;;37.43;21.60;;;2.40;99.90;;;;;;4994862;28;20568;-77
2021/01/07 05:24:39;;;;;;;34.17;21.03;;;2.40;99.90;;;;;;5005813;28;20253;-76
2021/01/07 05:27:10;;;;;;;40.40;23.00;;;2.40;99.90;;;;;;4994773;28;20206;-77
2021/01/07 05:29:38;;;;;;;37.92;21.55;;;2.50;99.90;;;;;;5011366;28;20264;-77
2021/01/07 05:32:04;;;;;;;37.17;21.70;;;2.40;99.90;;;;;;5011980;28;20299;-77
2021/01/07 05:34:30;;;;;;;36.20;21.80;;;2.40;99.90;;;;;;5012830;28;20224;-76
2021/01/07 05:36:59;;;;;;;34.13;20.83;;;2.40;99.90;;;;;;4994725;28;20226;-76
2021/01/07 05:39:34;;;;;;;33.85;21.65;;;2.50;99.90;;;;;;4998660;28;20660;-76
2021/01/07 05:42:01;;;;;;;38.90;20.80;;;2.50;99.90;;;;;;5003824;28;20599;-76
2021/01/07 05:44:31;;;;;;;35.38;20.75;;;2.60;99.90;;;;;;4999906;28;20198;-76
2021/01/07 05:46:57;;;;;;;42.90;23.63;;;2.60;99.90;;;;;;5009268;28;20216;-78
2021/01/07 05:49:37;;;;;;;39.97;22.30;;;2.50;99.90;;;;;;5007763;28;20195;-78
2021/01/07 05:52:05;;;;;;;39.17;22.02;;;2.60;99.90;;;;;;4992011;28;20226;-78
2021/01/07 05:54:33;;;;;;;34.10;22.30;;;2.60;99.90;;;;;;4992571;28;20252;-78
2021/01/07 05:57:05;;;;;;;37.85;21.20;;;2.50;99.90;;;;;;4994899;28;20218;-76
2021/01/07 05:59:32;;;;;;;39.72;22.65;;;2.60;99.90;;;;;;4997926;28;20665;-77
2021/01/07 06:02:02;;;;;;;38.15;21.90;;;2.60;99.90;;;;;;5009685;28;20237;-76
2021/01/07 06:04:37;;;;;;;39.30;21.27;;;2.60;99.90;;;;;;4997831;28;20209;-76
2021/01/07 06:07:04;;;;;;;37.10;20.23;;;2.50;99.90;;;;;;4993882;28;20216;-76
2021/01/07 06:09:31;;;;;;;33.30;20.83;;;2.50;99.90;;;;;;4994931;28;20189;-76
2021/01/07 06:12:01;;;;;;;40.55;23.50;;;2.50;99.90;;;;;;4985554;28;20301;-76
2021/01/07 06:14:26;;;;;;;35.45;20.90;;;2.50;99.90;;;;;;5007455;28;20205;-76
2021/01/07 06:16:56;;;;;;;34.17;20.97;;;2.60;99.90;;;;;;5001968;28;20261;-78
2021/01/07 06:19:39;;;;;;;35.58;22.60;;;2.60;99.90;;;;;;5001832;28;20445;-76
2021/01/07 06:22:14;;;;;;;38.03;21.35;;;2.50;99.90;;;;;;5001430;28;20214;-77
2021/01/07 06:24:41;;;;;;;34.72;20.58;;;2.50;99.90;;;;;;5000830;28;20291;-76
2021/01/07 06:27:27;;;;;;;42.08;24.13;;;2.50;99.90;;;;;;4996303;28;20791;-77
2021/01/07 06:30:00;;;;;;;43.30;23.20;;;2.60;99.90;;;;;;5010947;28;20606;-76
2021/01/07 06:32:30;;;;;;;41.78;23.83;;;2.60;99.90;;;;;;4997562;28;20580;-77
2021/01/07 06:34:57;;;;;;;37.08;22.38;;;2.70;99.90;;;;;;5003717;28;20260;-76
2021/01/07 06:37:31;;;;;;;38.50;22.73;;;2.70;99.90;;;;;;5006701;28;20213;-78
2021/01/07 06:39:58;;;;;;;36.55;20.90;;;2.60;99.90;;;;;;5003451;28;20212;-78
2021/01/07 06:42:24;;;;;;;37.85;22.02;;;2.60;99.90;;;;;;4989875;28;20206;-78
2021/01/07 06:44:52;;;;;;;41.13;22.38;;;2.60;99.90;;;;;;4996796;28;20221;-78
2021/01/07 06:47:20;;;;;;;36.33;21.85;;;2.60;99.90;;;;;;5003033;28;20209;-76
2021/01/07 06:49:46;;;;;;;35.35;22.83;;;2.60;99.90;;;;;;5010429;28;20260;-76
2021/01/07 06:52:12;;;;;;;34.50;22.38;;;2.60;99.90;;;;;;4999220;28;20276;-76
2021/01/07 06:54:41;;;;;;;40.83;21.83;;;2.60;99.90;;;;;;5015148;28;20611;-76
2021/01/07 06:57:10;;;;;;;37.65;21.20;;;2.60;99.90;;;;;;5005947;28;20533;-77
2021/01/07 06:59:36;;;;;;;40.80;21.40;;;2.60;99.90;;;;;;5007834;28;20297;-77
2021/01/07 07:02:04;;;;;;;39.67;22.40;;;2.60;99.90;;;;;;5004084;28;20214;-76
2021/01/07 07:04:31;;;;;;;39.45;22.27;;;2.60;99.90;;;;;;5013629;28;20190;-77
2021/01/07 07:07:09;;;;;;;39.65;21.95;;;2.60;99.90;;;;;;5014366;28;20214;-77
2021/01/07 07:09:40;;;;;;;38.25;22.45;;;2.60;99.90;;;;;;5001273;28;20193;-77
2021/01/07 07:12:06;;;;;;;34.70;20.65;;;2.50;99.90;;;;;;5004041;28;20435;-78
2021/01/07 07:14:33;;;;;;;39.60;23.10;;;2.50;99.90;;;;;;5012849;28;20224;-79
2021/01/07 07:17:10;;;;;;;39.88;22.10;;;2.40;99.90;;;;;;4996485;28;20309;-78
2021/01/07 07:19:40;;;;;;;36.35;21.35;;;2.40;99.90;;;;;;5004106;28;20672;-78
2021/01/07 07:22:09;;;;;;;41.45;22.83;;;2.40;99.90;;;;;;4996008;28;20245;-78
2021/01/07 07:24:39;;;;;;;40.00;22.48;;;2.50;99.90;;;;;;5012242;28;20198;-79
2021/01/07 07:27:08;;;;;;;38.92;21.55;;;2.50;99.90;;;;;;4998433;28;20201;-77
2021/01/07 07:29:36;;;;;;;35.08;21.05;;;2.60;99.90;;;;;;5000594;28;20273;-78
2021/01/07 07:32:23;;;;;;;38.97;22.17;;;2.50;99.90;;;;;;5010630;28;20316;-78
2021/01/07 07:34:50;;;;;;;34.72;20.58;;;2.60;99.90;;;;;;5012334;28;20200;-79
2021/01/07 07:37:26;;;;;;;33.97;20.88;;;2.60;99.90;;;;;;5000455;28;20298;-78
2021/01/07 07:40:00;;;;;;;39.10;20.92;;;2.60;99.90;;;;;;4994000;28;20205;-77
2021/01/07 07:42:30;;;;;;;29.85;18.70;;;2.60;99.90;;;;;;4993262;28;20688;-78
2021/01/07 07:44:59;;;;;;;33.38;20.48;;;2.60;99.90;;;;;;4995668;28;20198;-77
2021/01/07 07:47:25;;;;;;;34.88;20.88;;;2.60;99.90;;;;;;5009608;28;20669;-77
2021/01/07 07:49:55;;;;;;;33.57;17.90;;;2.60;99.90;;;;;;5000164;28;20256;-78
2021/01/07 07:52:21;;;;;;;34.53;18.33;;;2.60;99.90;;;;;;4998285;28;20600;-78
2021/01/07 07:54:58;;;;;;;34.92;18.95;;;2.60;99.90;;;;;;5009522;28;20217;-78
2021/01/07 07:57:24;;;;;;;31.45;17.83;;;2.70;99.90;;;;;;5000033;28;20201;-78
2021/01/07 07:59:49;;;;;;;31.77;18.93;;;2.90;99.90;;;;;;4993014;28;20795;-78
2021/01/07 08:02:16;;;;;;;32.50;17.70;;;3.00;99.90;;;;;;4992530;28;20225;-79
2021/01/07 08:04:43;;;;;;;37.13;17.48;;;3.10;99.90;;;;;;4993256;28;20197;-79
2021/01/07 08:07:09;;;;;;;30.88;16.92;;;3.20;99.90;;;;;;4993140;28;20210;-79
2021/01/07 08:09:35;;;;;;;32.80;17.60;;;3.20;99.90;;;;;;4993998;28;20191;-79
2021/01/07 08:12:01;;;;;;;25.93;16.30;;;3.20;99.90;;;;;;4992685;28;20703;-78
2021/01/07 08:14:30;;;;;;;26.40;15.70;;;3.30;99.90;;;;;;4991177;28;20218;-78
2021/01/07 08:16:57;;;;;;;28.13;18.27;;;3.40;99.90;;;;;;4992843;28;20300;-80
2021/01/07 08:19:33;;;;;;;29.17;16.92;;;3.40;99.90;;;;;;4993731;28;20190;-78
2021/01/07 08:21:59;;;;;;;30.40;15.98;;;3.30;99.90;;;;;;4992987;28;20218;-77
2021/01/07 08:24:25;;;;;;;29.63;17.67;;;3.30;99.90;;;;;;4993192;28;20228;-79
2021/01/07 08:27:00;;;;;;;25.70;14.65;;;3.40;99.90;;;;;;4993003;28;20752;-79
2021/01/07 08:29:27;;;;;;;36.13;16.95;;;3.50;99.90;;;;;;4992377;28;20212;-79
2021/01/07 08:31:53;;;;;;;30.95;18.70;;;3.60;99.90;;;;;;4992980;28;20214;-79
2021/01/07 08:34:20;;;;;;;23.83;15.65;;;3.50;99.90;;;;;;4992711;28;20190;-77
2021/01/07 08:36:46;;;;;;;29.95;16.55;;;3.40;99.90;;;;;;4992213;28;20310;-78
2021/01/07 08:39:15;;;;;;;26.13;14.63;;;3.40;99.90;;;;;;4992848;28;20193;-77
2021/01/07 08:41:44;;;;;;;27.10;16.42;;;3.30;99.90;;;;;;4992204;28;20689;-78
2021/01/07 08:44:10;;;;;;;24.73;15.60;;;3.30;99.90;;;;;;4993473;28;20197;-79
2021/01/07 08:46:42;;;;;;;27.85;16.42;;;3.20;99.90;;;;;;4993268;28;20294;-79
2021/01/07 08:49:16;;;;;;;37.67;16.27;;;3.20;99.90;;;;;;4992166;28;20604;-78
2021/01/07 08:52:00;;;;;;;24.58;15.25;;;3.30;99.90;;;;;;4993324;28;20285;-80
2021/01/07 08:54:26;;;;;;;26.70;16.13;;;3.20;99.90;;;;;;4993860;28;20237;-80
2021/01/07 08:56:53;;;;;;;26.55;16.15;;;3.20;99.90;;;;;;5004741;28;20210;-80
2021/01/07 08:59:30;;;;;;;29.55;17.00;;;3.10;99.90;;;;;;4996222;28;20700;-79
2021/01/07 09:02:04;;;;;;;32.30;17.50;;;3.20;99.90;;;;;;5012506;28;20217;-79
2021/01/07 09:04:34;;;;;;;25.70;16.55;;;3.20;99.90;;;;;;5012012;28;20604;-78
2021/01/07 09:07:08;;;;;;;26.02;16.25;;;3.20;99.90;;;;;;5010536;28;20220;-79
2021/01/07 09:09:57;;;;;;;60.08;20.10;;;3.30;99.90;;;;;;4994151;28;20292;-79
2021/01/07 09:12:27;;;;;;;26.88;16.00;;;3.30;99.90;;;;;;5001218;28;20209;-78
2021/01/07 09:14:53;;;;;;;28.27;17.73;;;3.30;99.90;;;;;;5010148;28;20213;-77
2021/01/07 09:17:38;;;;;;;33.20;15.77;;;3.20;99.90;;;;;;5011334;28;20209;-77
2021/01/07 09:20:09;;;;;;;25.90;16.35;;;3.30;99.90;;;;;;4994016;28;20194;-79
2021/01/07 09:22:36;;;;;;;33.83;17.00;;;3.30;99.90;;;;;;5001190;28;20300;-77
2021/01/07 09:25:03;;;;;;;32.28;16.67;;;3.30;99.90;;;;;;5008238;28;20198;-79
2021/01/07 09:27:29;;;;;;;28.05;18.27;;;3.40;99.90;;;;;;4998421;28;20221;-79
2021/01/07 09:29:55;;;;;;;25.50;15.60;;;3.30;99.90;;;;;;4999351;28;20538;-77
2021/01/07 09:32:21;;;;;;;25.40;15.52;;;3.20;99.90;;;;;;4991168;28;20301;-78
2021/01/07 09:34:47;;;;;;;24.03;14.83;;;3.10;99.90;;;;;;5008353;28;20301;-79
2021/01/07 09:37:15;;;;;;;25.87;15.27;;;3.00;99.90;;;;;;4998626;28;20461;-77
2021/01/07 09:39:42;;;;;;;24.92;14.48;;;3.00;99.90;;;;;;4999661;28;20476;-79
2021/01/07 09:42:08;;;;;;;23.58;14.57;;;3.00;99.90;;;;;;5006705;28;20206;-77
2021/01/07 09:44:34;;;;;;;25.45;14.88;;;2.90;99.90;;;;;;5010685;28;20233;-78
2021/01/07 09:47:01;;;;;;;19.48;13.05;;;2.80;99.90;;;;;;4992189;28;20226;-79
2021/01/07 09:49:27;;;;;;;22.38;12.55;;;2.80;99.90;;;;;;5006005;28;20536;-79
2021/01/07 09:51:54;;;;;;;21.63;12.85;;;2.80;99.90;;;;;;5001223;28;20712;-79
2021/01/07 09:54:22;;;;;;;21.15;12.60;;;2.80;99.90;;;;;;4991426;28;20214;-79
2021/01/07 09:56:53;;;;;;;16.63;10.88;;;2.80;99.90;;;;;;5001612;28;20221;-78
2021/01/07 09:59:20;;;;;;;21.60;13.13;;;2.80;99.90;;;;;;4991965;28;20175;-77
2021/01/07 10:01:46;;;;;;;18.10;9.90;;;2.80;99.90;;;;;;4998552;28;20210;-77
2021/01/07 10:04:13;;;;;;;17.33;9.85;;;2.80;99.90;;;;;;4996234;28;20186;-78
2021/01/07 10:06:40;;;;;;;14.32;9.77;;;2.80;99.90;;;;;;5008608;28;20214;-78
2021/01/07 10:09:06;;;;;;;16.88;10.73;;;2.80;99.90;;;;;;4997945;28;20233;-78
2021/01/07 10:11:32;;;;;;;15.97;11.80;;;2.80;99.90;;;;;;5006692;28;20214;-78
2021/01/07 10:13:57;;;;;;;13.23;8.40;;;2.80;99.90;;;;;;5005232;28;20245;-77
2021/01/07 10:16:23;;;;;;;16.10;10.10;;;2.90;99.90;;;;;;5012829;28;20217;-79
2021/01/07 10:18:49;;;;;;;13.40;8.97;;;2.80;99.90;;;;;;5015214;28;20169;-78
2021/01/07 10:21:20;;;;;;;13.13;8.40;;;2.80;99.90;;;;;;4988810;28;20620;-77
2021/01/07 10:23:48;;;;;;;13.07;8.88;;;2.80;99.90;;;;;;4995089;28;20305;-79
2021/01/07 10:26:17;;;;;;;12.38;7.75;;;2.90;99.90;;;;;;4982551;28;20211;-79
2021/01/07 10:28:45;;;;;;;11.27;7.95;;;2.90;99.90;;;;;;5003273;28;20177;-78
2021/01/07 10:31:12;;;;;;;12.75;8.30;;;2.90;99.90;;;;;;5014133;28;20289;-79
2021/01/07 10:33:39;;;;;;;11.57;8.50;;;2.90;99.90;;;;;;5007368;28;20190;-77
2021/01/07 10:36:05;;;;;;;11.50;8.45;;;2.90;99.90;;;;;;4994664;28;20224;-79
2021/01/07 10:38:32;;;;;;;11.32;8.07;;;2.80;99.90;;;;;;5001316;28;20178;-77
2021/01/07 10:41:00;;;;;;;14.63;9.48;;;2.80;99.90;;;;;;5011292;28;20205;-79
2021/01/07 10:43:28;;;;;;;14.18;8.13;;;2.80;99.90;;;;;;5013176;28;20198;-79
2021/01/07 10:45:55;;;;;;;12.77;9.50;;;2.80;99.90;;;;;;4996952;28;20194;-79
2021/01/07 10:48:22;;;;;;;11.93;8.80;;;2.80;99.90;;;;;;5013859;28;20212;-78
2021/01/07 10:50:51;;;;;;;12.35;8.38;;;2.80;99.90;;;;;;5013721;28;20186;-79
2021/01/07 10:53:53;;;;;;;12.88;8.18;;;2.90;99.90;;;;;;5014035;28;20201;-79
2021/01/07 10:56:48;;;;;;;13.80;8.13;;;2.90;99.90;;;;;;5004916;28;20218;-79
2021/01/07 10:59:53;;;;;;;12.02;8.63;;;2.90;99.90;;;;;;4998716;28;20180;-79
2021/01/07 11:02:56;;;;;;;14.57;9.27;;;2.90;99.90;;;;;;4980918;28;20213;-77
2021/01/07 11:05:39;;;;;;;13.48;8.52;;;2.90;99.90;;;;;;5008926;28;20246;-77
2021/01/07 11:08:16;;;;;;;11.95;8.45;;;2.80;99.90;;;;;;5008217;28;20205;-79
2021/01/07 11:10:53;;;;;;;14.02;9.35;;;2.80;99.90;;;;;;5023968;28;20202;-78
2021/01/07 11:13:22;;;;;;;13.52;9.38;;;2.80;99.90;;;;;;5013217;28;20271;-77
2021/01/07 11:15:57;;;;;;;13.38;8.27;;;2.90;99.90;;;;;;4995577;28;20600;-78
2021/01/07 11:18:29;;;;;;;12.20;8.80;;;2.80;99.90;;;;;;4998345;28;20174;-78
2021/01/07 11:21:04;;;;;;;11.20;7.80;;;2.80;99.90;;;;;;4986176;28;20230;-79
2021/01/07 11:23:31;;;;;;;12.57;7.68;;;2.80;99.90;;;;;;4997163;28;20197;-79
2021/01/07 11:25:56;;;;;;;14.63;8.10;;;2.80;99.90;;;;;;4997411;28;20608;-79
2021/01/07 11:28:23;;;;;;;11.07;8.53;;;2.80;99.90;;;;;;5006573;28;20166;-79
2021/01/07 11:30:49;;;;;;;9.65;7.32;;;2.80;99.90;;;;;;4994913;28;20514;-80
2021/01/07 11:33:16;;;;;;;8.57;7.20;;;2.80;99.90;;;;;;4995260;28;20190;-79
2021/01/07 11:35:44;;;;;;;10.13;7.38;;;2.90;99.90;;;;;;5005182;28;20699;-79
2021/01/07 11:38:23;;;;;;;10.35;7.43;;;2.90;99.90;;;;;;5003142;28;20219;-79
2021/01/07 11:41:08;;;;;;;8.60;7.40;;;2.90;99.90;;;;;;4994038;28;20205;-78
2021/01/07 11:44:07;;;;;;;8.88;6.55;;;2.90;99.90;;;;;;4993996;28;20198;-78
2021/01/07 11:46:37;;;;;;;8.00;7.03;;;3.00;99.90;;;;;;4975495;28;20569;-78
2021/01/07 11:49:04;;;;;;;8.25;5.88;;;3.00;99.90;;;;;;4993662;28;20194;-80
2021/01/07 11:51:30;;;;;;;8.63;6.22;;;2.90;99.90;;;;;;4993845;28;20238;-80
2021/01/07 11:54:00;;;;;;;8.33;6.47;;;2.90;99.90;;;;;;4995788;28;20229;-80
2021/01/07 11:56:25;;;;;;;10.20;7.10;;;2.90;99.90;;;;;;4994136;28;20448;-80
2021/01/07 11:58:52;;;;;;;7.50;5.83;;;2.80;99.90;;;;;;5015002;28;20213;-80
2021/01/07 12:01:18;;;;;;;11.45;6.50;;;2.90;99.90;;;;;;4990002;28;20524;-80
2021/01/07 12:03:44;;;;;;;8.70;6.40;;;2.80;99.90;;;;;;4996351;28;20207;-79
2021/01/07 12:06:15;;;;;;;9.20;6.97;;;2.90;99.90;;;;;;5004160;28;20214;-79
2021/01/07 12:09:12;;;;;;;7.82;6.60;;;2.90;99.90;;;;;;4988021;28;20190;-79
2021/01/07 12:12:04;;;;;;;10.15;6.10;;;2.90;99.90;;;;;;4994231;28;20716;-79
2021/01/07 12:14:38;;;;;;;8.15;6.07;;;3.00;99.90;;;;;;5000732;28;20206;-79
2021/01/07 12:17:06;;;;;;;9.07;6.00;;;2.90;99.90;;;;;;5011200;28;20205;-79
2021/01/07 12:19:33;;;;;;;8.25;6.50;;;3.00;99.90;;;;;;5004989;28;20181;-80
2021/01/07 12:22:06;;;;;;;8.07;6.15;;;2.90;99.90;;;;;;4996974;28;20226;-77
2021/01/07 12:24:32;;;;;;;8.70;6.43;;;2.90;99.90;;;;;;5005953;28;20190;-77
2021/01/07 12:26:59;;;;;;;7.30;6.03;;;2.90;99.90;;;;;;4998574;28;20213;-77
2021/01/07 12:29:25;;;;;;;9.85;7.32;;;2.90;99.90;;;;;;4997781;28;20217;-77
2021/01/07 12:31:55;;;;;;;10.07;7.27;;;2.90;99.90;;;;;;5011179;28;20715;-77
2021/01/07 12:34:26;;;;;;;8.40;6.55;;;3.00;99.90;;;;;;5000947;28;20444;-77
2021/01/07 12:36:58;;;;;;;9.60;6.97;;;3.00;99.90;;;;;;5002125;28;20217;-77
2021/01/07 12:39:50;;;;;;;9.00;6.72;;;3.00;99.90;;;;;;4997975;28;20212;-77
2021/01/07 12:42:27;;;;;;;9.23;7.10;;;3.00;99.90;;;;;;5007155;28;20206;-77
2021/01/07 12:44:56;;;;;;;8.18;6.50;;;3.00;99.90;;;;;;4992453;28;20177;-78
2021/01/07 12:47:21;;;;;;;8.00;6.63;;;3.00;99.90;;;;;;5002960;28;20220;-77